Time;durP1;ratioP1;P1;durP2;ratioP2;P2;SDS_P1;SDS_P2;PMS_P1;PMS_P2;Temp;Humidity;BMP_temperature;BMP_pressure;BME280_temperature;BME280_humidity;BME280_pressure;Samples;Min_cycle;Max_cycle;Signal;HPM_P1;HPM_P2
2022/08/14 00:02:13;;;;;;;;;;;21.50;21.80;;;;;;5020703;28;20536;-67
2022/08/14 00:04:40;;;;;;;;;;;21.40;22.10;;;;;;5021180;28;19929;-68
2022/08/14 00:07:07;;;;;;;;;;;21.30;22.70;;;;;;5025555;28;19984;-68
2022/08/14 00:09:33;;;;;;;;;;;21.20;23.20;;;;;;5025069;28;20419;-68
2022/08/14 00:12:00;;;;;;;;;;;21.10;23.70;;;;;;5025214;28;19979;-68
2022/08/14 00:14:27;;;;;;;;;;;21.10;24.20;;;;;;5025254;28;19931;-67
2022/08/14 00:16:55;;;;;;;;;;;21.10;24.70;;;;;;5023257;28;20008;-68
2022/08/14 00:19:22;;;;;;;;;;;21.00;25.10;;;;;;5024652;28;19932;-68
2022/08/14 00:21:49;;;;;;;;;;;21.00;25.60;;;;;;5023842;28;19925;-67
2022/08/14 00:24:16;;;;;;;;;;;20.90;26.40;;;;;;5026580;28;19932;-67
2022/08/14 00:26:42;;;;;;;;;;;20.80;27.50;;;;;;5028616;28;19929;-68
2022/08/14 00:29:09;;;;;;;;;;;20.70;28.70;;;;;;5025162;28;19943;-68
2022/08/14 00:31:36;;;;;;;;;;;20.60;29.60;;;;;;5018994;28;19925;-67
2022/08/14 00:34:04;;;;;;;;;;;20.60;30.20;;;;;;5028038;28;20028;-68
2022/08/14 00:36:31;;;;;;;;;;;20.50;31.90;;;;;;5026070;28;20020;-67
2022/08/14 00:38:57;;;;;;;;;;;20.60;32.00;;;;;;5020941;28;19932;-67
2022/08/14 00:41:29;;;;;;;;;;;20.60;32.90;;;;;;5022468;28;19940;-68
2022/08/14 00:43:56;;;;;;;;;;;20.60;33.80;;;;;;5021128;28;20024;-68
2022/08/14 00:46:23;;;;;;;;;;;20.50;34.60;;;;;;5028889;28;20024;-67
2022/08/14 00:48:49;;;;;;;;;;;20.60;35.60;;;;;;5024023;28;19939;-68
2022/08/14 00:51:18;;;;;;;;;;;20.50;36.50;;;;;;5029532;28;19925;-67
2022/08/14 00:53:44;;;;;;;;;;;20.50;37.50;;;;;;5020938;28;20391;-68
2022/08/14 00:56:12;;;;;;;;;;;20.50;38.30;;;;;;5027218;28;20023;-67
2022/08/14 00:58:38;;;;;;;;;;;20.50;39.60;;;;;;5023063;28;19932;-67
2022/08/14 01:01:07;;;;;;;;;;;20.50;40.60;;;;;;5021948;28;19931;-67
2022/08/14 01:03:36;;;;;;;;;;;20.40;42.20;;;;;;5018451;28;20019;-68
2022/08/14 01:06:03;;;;;;;;;;;20.30;43.40;;;;;;5025688;28;20435;-68
2022/08/14 01:08:31;;;;;;;;;;;20.30;45.00;;;;;;5025884;28;19932;-67
2022/08/14 01:10:58;;;;;;;;;;;20.20;46.50;;;;;;5023107;28;19925;-67
2022/08/14 01:13:26;;;;;;;;;;;20.20;48.20;;;;;;5025562;28;20015;-67
2022/08/14 01:15:53;;;;;;;;;;;20.10;49.80;;;;;;5025249;28;19996;-67
2022/08/14 01:21:10;;;;;;;;;;;20.10;53.30;;;;;;5022280;28;19943;-67
2022/08/14 01:23:40;;;;;;;;;;;20.00;54.60;;;;;;5023952;28;20380;-67
2022/08/14 01:26:07;;;;;;;;;;;20.00;55.80;;;;;;5024935;28;19931;-68
2022/08/14 01:28:36;;;;;;;;;;;20.00;56.90;;;;;;5025952;28;19956;-66
2022/08/14 01:31:07;;;;;;;;;;;20.00;57.70;;;;;;5023950;28;19931;-67
2022/08/14 01:33:37;;;;;;;;;;;20.00;58.70;;;;;;5025429;28;19932;-67
2022/08/14 01:36:04;;;;;;;;;;;19.90;59.60;;;;;;5023183;28;20355;-67
2022/08/14 01:38:33;;;;;;;;;;;19.90;60.80;;;;;;5017662;28;19940;-68
2022/08/14 01:41:01;;;;;;;;;;;19.90;62.30;;;;;;5024864;28;19933;-67
2022/08/14 01:43:29;;;;;;;;;;;19.90;63.70;;;;;;5020064;28;19933;-68
2022/08/14 01:45:59;;;;;;;;;;;19.90;64.90;;;;;;5017651;28;20042;-67
2022/08/14 01:48:29;;;;;;;;;;;19.80;66.00;;;;;;5028960;28;19925;-68
2022/08/14 01:50:56;;;;;;;;;;;19.80;67.70;;;;;;5025483;28;19932;-67
2022/08/14 01:53:23;;;;;;;;;;;19.70;69.60;;;;;;5024731;28;19925;-68
2022/08/14 01:55:50;;;;;;;;;;;19.70;71.40;;;;;;5022957;28;20387;-67
2022/08/14 01:58:18;;;;;;;;;;;19.60;72.50;;;;;;5026155;28;20383;-68
2022/08/14 02:00:45;;;;;;;;;;;19.60;73.70;;;;;;5022198;28;19932;-67
2022/08/14 02:03:11;;;;;;;;;;;19.50;75.20;;;;;;5026792;28;19960;-67
2022/08/14 02:05:38;;;;;;;;;;;19.50;76.90;;;;;;5026007;28;20125;-69
2022/08/14 02:08:05;;;;;;;;;;;19.40;78.30;;;;;;5022954;28;20016;-68
2022/08/14 02:10:34;;;;;;;;;;;19.50;80.10;;;;;;5025311;28;20016;-68
2022/08/14 02:13:04;;;;;;;;;;;19.40;80.00;;;;;;5022934;28;20016;-68
2022/08/14 02:15:32;;;;;;;;;;;19.40;81.00;;;;;;5018448;28;19925;-67
2022/08/14 02:18:00;;;;;;;;;;;19.30;82.90;;;;;;5022624;28;20487;-67
2022/08/14 02:20:29;;;;;;;;;;;19.20;84.20;;;;;;5019767;28;20011;-67
2022/08/14 02:22:56;;;;;;;;;;;19.20;85.30;;;;;;5015464;28;20043;-67
2022/08/14 02:25:23;;;;;;;;;;;19.20;86.70;;;;;;5019198;28;20063;-67
2022/08/14 02:27:50;;;;;;;;;;;19.10;87.80;;;;;;5028304;28;19925;-67
2022/08/14 02:30:16;;;;;;;;;;;19.10;89.40;;;;;;5023720;28;19932;-67
2022/08/14 02:32:44;;;;;;;;;;;19.00;90.60;;;;;;5024024;28;20041;-66
2022/08/14 02:35:16;;;;;;;;;;;18.90;91.40;;;;;;5023283;28;20015;-67
2022/08/14 02:37:43;;;;;;;;;;;18.90;92.10;;;;;;5026538;28;19938;-66
2022/08/14 02:40:11;;;;;;;;;;;18.90;92.40;;;;;;5026268;28;19925;-67
2022/08/14 02:42:38;;;;;;;;;;;18.90;92.80;;;;;;5026274;28;20031;-68
2022/08/14 02:45:05;;;;;;;;;;;18.80;92.90;;;;;;5024432;28;20020;-68
2022/08/14 02:47:32;;;;;;;;;;;18.80;93.20;;;;;;5021447;28;19926;-68
2022/08/14 02:50:00;;;;;;;;;;;18.80;93.50;;;;;;5022383;28;20015;-68
2022/08/14 02:52:27;;;;;;;;;;;18.70;93.80;;;;;;5021191;28;19967;-67
2022/08/14 02:54:55;;;;;;;;;;;18.70;94.30;;;;;;5022126;28;20600;-67
2022/08/14 02:57:23;;;;;;;;;;;18.70;94.70;;;;;;5024395;28;19948;-67
2022/08/14 02:59:51;;;;;;;;;;;18.60;95.00;;;;;;5023641;28;19925;-68
2022/08/14 03:02:18;;;;;;;;;;;18.60;96.90;;;;;;5026251;28;19926;-67
2022/08/14 03:04:45;;;;;;;;;;;18.60;97.40;;;;;;5027038;28;20392;-67
2022/08/14 03:07:15;;;;;;;;;;;18.60;98.70;;;;;;5029136;28;20014;-67
2022/08/14 03:09:42;;;;;;;;;;;18.60;99.30;;;;;;5026394;28;20024;-67
2022/08/14 03:12:09;;;;;;;;;;;18.60;99.80;;;;;;5029566;28;19980;-67
2022/08/14 03:14:37;;;;;;;;;;;18.50;99.90;;;;;;5024532;28;19925;-66
2022/08/14 03:17:09;;;;;;;;;;;18.40;99.90;;;;;;5027936;28;19954;-66
2022/08/14 03:19:35;;;;;;;;;;;18.30;99.90;;;;;;5026607;28;20011;-67
2022/08/14 03:22:03;;;;;;;;;;;18.20;99.90;;;;;;5028616;28;20020;-67
2022/08/14 03:24:31;;;;;;;;;;;18.20;99.90;;;;;;5024478;28;19937;-67
2022/08/14 03:26:58;;;;;;;;;;;18.20;99.90;;;;;;5024124;28;20016;-67
2022/08/14 03:29:27;;;;;;;;;;;18.30;99.90;;;;;;5020425;28;20028;-67
2022/08/14 03:31:54;;;;;;;;;;;18.50;99.90;;;;;;5024498;28;20362;-67
2022/08/14 03:34:22;;;;;;;;;;;18.60;99.90;;;;;;5023198;28;19933;-67
2022/08/14 03:36:53;;;;;;;;;;;18.50;99.90;;;;;;5022955;28;20410;-67
2022/08/14 03:39:20;;;;;;;;;;;18.20;99.90;;;;;;5024291;28;19995;-67
2022/08/14 03:41:49;;;;;;;;;;;18.00;99.90;;;;;;5023235;28;19925;-67
2022/08/14 03:44:16;;;;;;;;;;;18.00;99.90;;;;;;5023434;28;20482;-67
2022/08/14 03:46:43;;;;;;;;;;;18.10;99.90;;;;;;5020115;28;19960;-67
2022/08/14 03:49:10;;;;;;;;;;;18.00;99.90;;;;;;5022210;28;20446;-67
2022/08/14 03:51:37;;;;;;;;;;;17.80;99.90;;;;;;5017839;28;20306;-67
2022/08/14 03:54:07;;;;;;;;;;;17.80;99.90;;;;;;5025693;28;19968;-66
2022/08/14 03:56:35;;;;;;;;;;;17.80;99.90;;;;;;5027520;28;20351;-68
2022/08/14 03:59:07;;;;;;;;;;;17.90;99.90;;;;;;5026319;28;19925;-67
2022/08/14 04:01:34;;;;;;;;;;;18.10;99.90;;;;;;5027529;28;19948;-67
2022/08/14 04:04:05;;;;;;;;;;;18.10;99.90;;;;;;5030914;28;19925;-66
2022/08/14 04:06:31;;;;;;;;;;;18.10;99.90;;;;;;5028676;28;19972;-67
2022/08/14 04:08:58;;;;;;;;;;;18.00;99.90;;;;;;5024981;28;20012;-67
2022/08/14 04:11:25;;;;;;;;;;;18.00;99.90;;;;;;5017182;28;19932;-67
2022/08/14 04:13:53;;;;;;;;;;;18.00;99.90;;;;;;5021588;28;19995;-67
2022/08/14 04:16:22;;;;;;;;;;;18.10;99.90;;;;;;5029842;28;20368;-67
2022/08/14 04:18:50;;;;;;;;;;;18.10;99.90;;;;;;5022958;28;19929;-67
2022/08/14 04:21:17;;;;;;;;;;;18.10;99.90;;;;;;5021906;28;20304;-67
2022/08/14 04:23:44;;;;;;;;;;;18.10;99.90;;;;;;5028287;28;20028;-67
2022/08/14 04:26:12;;;;;;;;;;;18.00;99.90;;;;;;5027529;28;19931;-67
2022/08/14 04:28:39;;;;;;;;;;;17.90;99.90;;;;;;5016559;28;19931;-67
2022/08/14 04:31:06;;;;;;;;;;;17.90;99.90;;;;;;5020282;28;20307;-67
2022/08/14 04:33:35;;;;;;;;;;;17.80;99.90;;;;;;5028546;28;20475;-67
2022/08/14 04:36:02;;;;;;;;;;;17.80;99.90;;;;;;5019987;28;19926;-67
2022/08/14 04:43:57;;;;;;;;;;;17.70;99.90;;;;;;5019511;28;20493;-67
2022/08/14 04:46:24;;;;;;;;;;;17.60;99.90;;;;;;5020280;28;19925;-67
2022/08/14 04:48:51;;;;;;;;;;;17.50;99.90;;;;;;5028009;28;20295;-67
2022/08/14 04:51:19;;;;;;;;;;;17.60;99.90;;;;;;5027379;28;19933;-67
2022/08/14 04:53:47;;;;;;;;;;;17.70;99.90;;;;;;5023891;28;20013;-67
2022/08/14 04:56:15;;;;;;;;;;;17.70;99.90;;;;;;5026555;28;20012;-67
2022/08/14 04:58:42;;;;;;;;;;;17.70;99.90;;;;;;5024698;28;20016;-67
2022/08/14 05:01:12;;;;;;;;;;;17.70;99.90;;;;;;5025055;28;20501;-66
2022/08/14 05:03:38;;;;;;;;;;;17.70;99.90;;;;;;5029681;28;19925;-66
2022/08/14 05:06:08;;;;;;;;;;;17.70;99.90;;;;;;5025700;28;19925;-67
2022/08/14 05:08:35;;;;;;;;;;;17.90;99.90;;;;;;5020165;28;19929;-67
2022/08/14 05:11:03;;;;;;;;;;;18.00;99.90;;;;;;5028345;28;19932;-67
2022/08/14 05:13:31;;;;;;;;;;;18.10;99.90;;;;;;5026881;28;20306;-67
2022/08/14 05:15:58;;;;;;;;;;;18.10;99.90;;;;;;5025214;28;19925;-67
2022/08/14 05:18:26;;;;;;;;;;;18.10;99.90;;;;;;5019218;28;20004;-67
2022/08/14 05:20:54;;;;;;;;;;;18.10;99.90;;;;;;5021643;28;19931;-67
2022/08/14 05:23:23;;;;;;;;;;;18.00;99.90;;;;;;5025531;28;20355;-67
2022/08/14 05:25:53;;;;;;;;;;;18.20;99.90;;;;;;5025952;28;19925;-66
2022/08/14 05:28:21;;;;;;;;;;;18.10;99.90;;;;;;5022882;28;19925;-67
2022/08/14 05:30:48;;;;;;;;;;;18.00;99.90;;;;;;5027053;28;19925;-67
2022/08/14 05:33:17;;;;;;;;;;;17.80;99.90;;;;;;5022851;28;20473;-68
2022/08/14 05:35:44;;;;;;;;;;;17.90;99.90;;;;;;5020540;28;19966;-67
2022/08/14 05:38:12;;;;;;;;;;;18.00;99.90;;;;;;5019960;28;19944;-67
2022/08/14 05:40:41;;;;;;;;;;;18.00;99.90;;;;;;5019682;28;19929;-67
2022/08/14 05:43:07;;;;;;;;;;;18.20;99.90;;;;;;5021152;28;19971;-67
2022/08/14 05:45:34;;;;;;;;;;;18.30;99.90;;;;;;5019761;28;19925;-67
2022/08/14 05:48:01;;;;;;;;;;;18.50;99.90;;;;;;5020788;28;19932;-67
2022/08/14 05:50:28;;;;;;;;;;;18.40;99.90;;;;;;5026340;28;19925;-67
2022/08/14 05:52:54;;;;;;;;;;;18.60;99.90;;;;;;5021046;28;20343;-68
2022/08/14 05:55:21;;;;;;;;;;;18.60;99.90;;;;;;5017927;28;19929;-68
2022/08/14 05:57:51;;;;;;;;;;;18.60;99.90;;;;;;5024286;28;19926;-67
2022/08/14 06:00:18;;;;;;;;;;;18.70;99.90;;;;;;5020802;28;19929;-68
2022/08/14 06:02:45;;;;;;;;;;;18.90;99.90;;;;;;5026423;28;19960;-67
2022/08/14 06:05:11;;;;;;;;;;;19.00;99.90;;;;;;5022364;28;19995;-67
2022/08/14 06:07:38;;;;;;;;;;;19.00;99.90;;;;;;5023105;28;20012;-68
2022/08/14 06:10:06;;;;;;;;;;;19.00;99.90;;;;;;5027101;28;20016;-67
2022/08/14 06:12:32;;;;;;;;;;;19.00;99.90;;;;;;5022729;28;22283;-68
2022/08/14 06:15:00;;;;;;;;;;;19.30;99.90;;;;;;5020825;28;20020;-67
2022/08/14 06:17:27;;;;;;;;;;;19.40;99.90;;;;;;5023242;28;19959;-67
2022/08/14 06:19:54;;;;;;;;;;;19.60;99.90;;;;;;5027679;28;20035;-68
2022/08/14 06:22:21;;;;;;;;;;;19.70;99.90;;;;;;5022329;28;20020;-67
2022/08/14 06:24:47;;;;;;;;;;;19.80;99.90;;;;;;5020959;28;19995;-67
2022/08/14 06:27:14;;;;;;;;;;;19.80;99.90;;;;;;5025234;28;19925;-67
2022/08/14 06:29:41;;;;;;;;;;;19.80;99.90;;;;;;5030251;28;19932;-68
2022/08/14 06:32:09;;;;;;;;;;;19.90;99.40;;;;;;5025945;28;19935;-68
2022/08/14 06:34:38;;;;;;;;;;;20.10;98.80;;;;;;5027290;28;20287;-67
2022/08/14 06:37:04;;;;;;;;;;;20.20;97.90;;;;;;5025353;28;19976;-68
2022/08/14 06:39:32;;;;;;;;;;;20.40;98.20;;;;;;5029522;28;19933;-69
2022/08/14 06:41:59;;;;;;;;;;;20.50;97.20;;;;;;5022130;28;19926;-69
2022/08/14 06:44:27;;;;;;;;;;;20.60;97.10;;;;;;5020570;28;20607;-68
2022/08/14 06:46:53;;;;;;;;;;;20.70;96.90;;;;;;5019400;28;20295;-68
2022/08/14 06:49:22;;;;;;;;;;;20.80;96.50;;;;;;5019350;28;19947;-68
2022/08/14 06:51:48;;;;;;;;;;;20.70;96.30;;;;;;5018314;28;20384;-68
2022/08/14 06:54:15;;;;;;;;;;;20.90;95.80;;;;;;5025885;28;20012;-68
2022/08/14 06:56:42;;;;;;;;;;;21.10;95.40;;;;;;5026087;28;19964;-68
2022/08/14 06:59:08;;;;;;;;;;;21.20;94.80;;;;;;5027525;28;19928;-69
2022/08/14 07:07:13;;;;;;;;;;;21.70;83.10;;;;;;5013448;28;19929;-68
2022/08/14 07:09:39;;;;;;;;;;;23.50;80.50;;;;;;5026516;28;20499;-68
2022/08/14 07:12:07;;;;;;;;;;;26.10;60.00;;;;;;5022476;28;20035;-68
2022/08/14 07:14:34;;;;;;;;;;;27.90;48.20;;;;;;5021144;28;19929;-68
2022/08/14 07:17:01;;;;;;;;;;;29.20;36.90;;;;;;5026030;28;20289;-68
2022/08/14 07:19:28;;;;;;;;;;;31.10;28.60;;;;;;5030397;28;19968;-68
2022/08/14 07:21:55;;;;;;;;;;;30.60;25.40;;;;;;5027482;28;19929;-68
2022/08/14 07:24:23;;;;;;;;;;;31.80;22.10;;;;;;5021564;28;20304;-68
2022/08/14 07:26:50;;;;;;;;;;;31.90;20.80;;;;;;5028675;28;19980;-68
2022/08/14 07:29:16;;;;;;;;;;;31.30;19.40;;;;;;5027732;28;20358;-68
2022/08/14 07:31:43;;;;;;;;;;;30.00;20.50;;;;;;5027203;28;19925;-68
2022/08/14 07:34:10;;;;;;;;;;;29.90;20.80;;;;;;5029970;28;19925;-68
2022/08/14 07:36:36;;;;;;;;;;;30.10;20.70;;;;;;5025466;28;19929;-68
2022/08/14 07:39:03;;;;;;;;;;;29.70;20.50;;;;;;5026321;28;20295;-68
2022/08/14 07:41:31;;;;;;;;;;;30.10;20.00;;;;;;5023399;28;19932;-69
2022/08/14 07:43:58;;;;;;;;;;;31.90;17.70;;;;;;5012253;28;19968;-68
2022/08/14 07:46:26;;;;;;;;;;;32.80;15.70;;;;;;5017832;28;19925;-68
2022/08/14 07:48:53;;;;;;;;;;;32.00;14.90;;;;;;5023125;28;20431;-68
2022/08/14 07:51:20;;;;;;;;;;;33.20;13.70;;;;;;5028692;28;19925;-68
2022/08/14 07:53:46;;;;;;;;;;;32.10;14.20;;;;;;5032060;28;19982;-68
2022/08/14 07:56:13;;;;;;;;;;;32.10;13.60;;;;;;5026970;28;19961;-68
2022/08/14 07:58:41;;;;;;;;;;;31.80;13.50;;;;;;5030117;28;19932;-68
2022/08/14 08:01:08;;;;;;;;;;;31.80;13.90;;;;;;5022870;28;20414;-68
2022/08/14 08:03:37;;;;;;;;;;;31.90;13.30;;;;;;5020203;28;19925;-68
2022/08/14 08:06:03;;;;;;;;;;;31.80;13.50;;;;;;5029538;28;19925;-68
2022/08/14 08:08:31;;;;;;;;;;;32.50;12.30;;;;;;5027569;28;19929;-68
2022/08/14 08:10:59;;;;;;;;;;;32.70;12.00;;;;;;5025683;28;20014;-68
2022/08/14 08:13:26;;;;;;;;;;;35.30;9.30;;;;;;5020969;28;20199;-68
2022/08/14 08:15:57;;;;;;;;;;;36.30;23.00;;;;;;5028071;28;20324;-68
2022/08/14 08:18:24;;;;;;;;;;;34.50;6.30;;;;;;5030151;28;20019;-68
2022/08/14 08:20:51;;;;;;;;;;;33.20;8.20;;;;;;5027460;28;19925;-69
2022/08/14 08:23:19;;;;;;;;;;;33.90;7.90;;;;;;5024017;28;19925;-69
2022/08/14 08:25:47;;;;;;;;;;;36.00;5.80;;;;;;5029182;28;20454;-69
2022/08/14 08:28:15;;;;;;;;;;;36.70;3.70;;;;;;5028020;28;19936;-70
2022/08/14 08:30:42;;;;;;;;;;;36.90;2.90;;;;;;5027065;28;19925;-70
2022/08/14 08:33:10;;;;;;;;;;;35.70;3.50;;;;;;5020174;28;19971;-70
2022/08/14 08:35:38;;;;;;;;;;;36.10;3.50;;;;;;5022033;28;19926;-69
2022/08/14 08:38:06;;;;;;;;;;;35.70;4.30;;;;;;5026358;28;19925;-70
2022/08/14 08:40:35;;;;;;;;;;;37.80;1.40;;;;;;5019382;28;19948;-70
2022/08/14 08:43:02;;;;;;;;;;;38.50;1.00;;;;;;5025022;28;19940;-70
2022/08/14 08:45:29;;;;;;;;;;;36.30;1.20;;;;;;5025282;28;20020;-70
2022/08/14 08:47:56;;;;;;;;;;;33.10;4.80;;;;;;5032443;28;20351;-69
2022/08/14 08:50:29;;;;;;;;;;;31.70;6.70;;;;;;5024046;28;19932;-70
2022/08/14 08:52:57;;;;;;;;;;;31.80;6.50;;;;;;5028782;28;19925;-68
2022/08/14 08:55:25;;;;;;;;;;;31.80;6.10;;;;;;5024223;28;20474;-70
2022/08/14 08:57:55;;;;;;;;;;;31.20;7.60;;;;;;5028444;28;20027;-69
2022/08/14 09:00:23;;;;;;;;;;;30.50;8.80;;;;;;5026384;28;20032;-70
2022/08/14 09:02:56;;;;;;;;;;;31.00;8.20;;;;;;5030812;28;19968;-69
2022/08/14 09:05:24;;;;;;;;;;;31.00;7.80;;;;;;5023949;28;19940;-68
2022/08/14 09:07:51;;;;;;;;;;;31.80;7.10;;;;;;5028582;28;20004;-68
2022/08/14 09:10:18;;;;;;;;;;;32.50;6.70;;;;;;5027312;28;20083;-69
2022/08/14 09:12:45;;;;;;;;;;;33.00;5.70;;;;;;5029520;28;19925;-67
2022/08/14 09:15:12;;;;;;;;;;;34.10;3.60;;;;;;5017144;28;19929;-67
2022/08/14 09:17:39;;;;;;;;;;;35.10;2.60;;;;;;5026228;28;20036;-66
2022/08/14 09:20:06;;;;;;;;;;;35.50;1.80;;;;;;5024136;28;19925;-67
2022/08/14 09:22:35;;;;;;;;;;;36.40;1.00;;;;;;5023788;28;19933;-68
2022/08/14 09:25:01;;;;;;;;;;;36.90;1.00;;;;;;5027708;28;19995;-68
2022/08/14 09:27:28;;;;;;;;;;;36.80;1.00;;;;;;5022739;28;19929;-68
2022/08/14 09:29:55;;;;;;;;;;;35.80;1.00;;;;;;5027537;28;20019;-68
2022/08/14 09:32:27;;;;;;;;;;;36.70;1.00;;;;;;5028783;28;20421;-68
2022/08/14 09:35:00;;;;;;;;;;;37.30;1.00;;;;;;5028666;28;20277;-68
2022/08/14 09:37:34;;;;;;;;;;;36.70;1.00;;;;;;5028656;28;19987;-69
2022/08/14 09:40:07;;;;;;;;;;;35.20;1.00;;;;;;5026881;28;20445;-68
2022/08/14 09:42:47;;;;;;;;;;;35.50;1.00;;;;;;5026598;28;19925;-68
2022/08/14 09:45:15;;;;;;;;;;;35.20;1.00;;;;;;5024814;28;19926;-68
2022/08/14 09:47:43;;;;;;;;;;;35.10;1.00;;;;;;5025959;28;20012;-68
2022/08/14 09:50:17;;;;;;;;;;;35.50;1.00;;;;;;5026190;28;19925;-68
2022/08/14 09:52:50;;;;;;;;;;;35.60;1.00;;;;;;5028684;28;19924;-68
2022/08/14 09:55:18;;;;;;;;;;;35.60;1.00;;;;;;5027210;28;19944;-67
2022/08/14 09:57:45;;;;;;;;;;;35.30;1.00;;;;;;5023715;28;20373;-69
2022/08/14 10:00:15;;;;;;;;;;;34.90;1.00;;;;;;5021102;28;19929;-69
2022/08/14 10:02:52;;;;;;;;;;;33.60;1.00;;;;;;5026698;28;20363;-69
2022/08/14 10:05:27;;;;;;;;;;;34.20;1.00;;;;;;5031632;28;19925;-69
2022/08/14 10:07:54;;;;;;;;;;;33.10;1.00;;;;;;5032864;28;19933;-69
2022/08/14 10:10:28;;;;;;;;;;;32.30;1.00;;;;;;5032759;28;19925;-68
2022/08/14 10:12:56;;;;;;;;;;;32.20;1.00;;;;;;5027515;28;19925;-68
2022/08/14 10:15:25;;;;;;;;;;;32.00;1.00;;;;;;5031537;28;19932;-68
2022/08/14 10:18:08;;;;;;;;;;;32.00;1.00;;;;;;5032131;28;19932;-68
2022/08/14 10:20:37;;;;;;;;;;;32.00;1.00;;;;;;5028688;28;20023;-69
2022/08/14 10:23:14;;;;;;;;;;;31.50;1.60;;;;;;5032435;28;20387;-68
2022/08/14 10:25:43;;;;;;;;;;;31.70;1.70;;;;;;5029452;28;19975;-68
2022/08/14 10:28:14;;;;;;;;;;;31.70;2.30;;;;;;5032552;28;20019;-68
2022/08/14 10:30:41;;;;;;;;;;;31.70;1.20;;;;;;5024464;28;20395;-67
2022/08/14 10:33:08;;;;;;;;;;;31.70;1.60;;;;;;5029134;28;19925;-69
2022/08/14 10:35:41;;;;;;;;;;;31.60;1.00;;;;;;5030564;28;19925;-69
2022/08/14 10:38:09;;;;;;;;;;;31.50;1.00;;;;;;5023384;28;19926;-68
2022/08/14 10:40:36;;;;;;;;;;;31.60;1.10;;;;;;5028780;28;19925;-68
2022/08/14 10:43:15;;;;;;;;;;;31.20;1.00;;;;;;5024798;28;19973;-69
2022/08/14 10:45:52;;;;;;;;;;;31.20;1.00;;;;;;5030643;28;19932;-68
2022/08/14 10:48:19;;;;;;;;;;;31.30;1.00;;;;;;5028385;28;20323;-68
2022/08/14 10:50:50;;;;;;;;;;;31.20;1.00;;;;;;5028614;28;20016;-68
2022/08/14 10:53:27;;;;;;;;;;;31.40;1.00;;;;;;5031723;28;19936;-68
2022/08/14 10:55:57;;;;;;;;;;;31.50;1.00;;;;;;5025731;28;20016;-68
2022/08/14 10:58:28;;;;;;;;;;;31.20;1.00;;;;;;5029748;28;20387;-68
2022/08/14 11:00:57;;;;;;;;;;;31.40;1.00;;;;;;5027748;28;19929;-69
2022/08/14 11:03:24;;;;;;;;;;;31.60;1.00;;;;;;5029375;28;19929;-69
2022/08/14 11:05:51;;;;;;;;;;;31.60;1.00;;;;;;5026290;28;20395;-68
2022/08/14 11:08:29;;;;;;;;;;;31.90;1.00;;;;;;5028362;28;19976;-69
2022/08/14 11:10:57;;;;;;;;;;;31.90;1.00;;;;;;5023045;28;20020;-68
2022/08/14 11:13:26;;;;;;;;;;;32.10;1.00;;;;;;5033478;28;20323;-68
2022/08/14 11:15:55;;;;;;;;;;;31.90;1.00;;;;;;5026932;28;19932;-68
2022/08/14 11:18:22;;;;;;;;;;;31.80;1.00;;;;;;5018781;28;19979;-68
2022/08/14 11:20:53;;;;;;;;;;;31.70;1.00;;;;;;5028520;28;20343;-68
2022/08/14 11:23:20;;;;;;;;;;;30.90;1.00;;;;;;5030190;28;19925;-67
2022/08/14 11:25:48;;;;;;;;;;;30.70;1.00;;;;;;5026155;28;19932;-67
2022/08/14 11:28:15;;;;;;;;;;;30.60;1.00;;;;;;5030558;28;19925;-67
2022/08/14 11:30:43;;;;;;;;;;;30.70;1.00;;;;;;5027783;28;20015;-68
2022/08/14 11:33:11;;;;;;;;;;;30.80;1.00;;;;;;5029940;28;20236;-67
2022/08/14 11:35:38;;;;;;;;;;;30.60;1.00;;;;;;5030251;28;20008;-67
2022/08/14 11:38:06;;;;;;;;;;;30.50;1.00;;;;;;5031114;28;19926;-67
2022/08/14 11:40:34;;;;;;;;;;;30.40;1.00;;;;;;5031003;28;20295;-67
2022/08/14 11:43:02;;;;;;;;;;;30.50;1.00;;;;;;5026011;28;20258;-67
2022/08/14 11:45:31;;;;;;;;;;;30.60;1.00;;;;;;5028209;28;19931;-67
2022/08/14 11:47:58;;;;;;;;;;;30.70;1.00;;;;;;5026847;28;20012;-67
2022/08/14 11:50:29;;;;;;;;;;;31.20;1.00;;;;;;5027148;28;20368;-68
2022/08/14 11:52:56;;;;;;;;;;;31.50;1.00;;;;;;5029199;28;20388;-68
2022/08/14 11:55:25;;;;;;;;;;;31.70;1.00;;;;;;5026303;28;19925;-68
2022/08/14 11:58:00;;;;;;;;;;;31.90;1.00;;;;;;5013304;28;19929;-67
2022/08/14 12:00:27;;;;;;;;;;;31.80;1.00;;;;;;5026253;28;20411;-68
2022/08/14 12:02:54;;;;;;;;;;;32.10;1.00;;;;;;5029984;28;19983;-67
2022/08/14 12:05:37;;;;;;;;;;;32.10;1.00;;;;;;5027013;28;20217;-68
2022/08/14 12:08:06;;;;;;;;;;;32.30;1.00;;;;;;5024685;28;19925;-68
2022/08/14 12:10:33;;;;;;;;;;;32.40;1.00;;;;;;5022536;28;19995;-68
2022/08/14 12:13:10;;;;;;;;;;;32.00;1.00;;;;;;5028550;28;20020;-67
2022/08/14 12:15:37;;;;;;;;;;;31.60;1.00;;;;;;5029518;28;19994;-68
2022/08/14 12:18:04;;;;;;;;;;;31.80;1.00;;;;;;5023413;28;19932;-68
2022/08/14 12:20:32;;;;;;;;;;;32.20;1.00;;;;;;5028271;28;19932;-68
2022/08/14 12:23:01;;;;;;;;;;;31.70;1.00;;;;;;5028420;28;20391;-68
2022/08/14 12:25:28;;;;;;;;;;;31.80;1.00;;;;;;5027596;28;20020;-69
2022/08/14 12:27:56;;;;;;;;;;;32.00;1.00;;;;;;5027304;28;20016;-69
2022/08/14 12:30:27;;;;;;;;;;;32.60;1.00;;;;;;5027808;28;19925;-69
2022/08/14 12:32:55;;;;;;;;;;;32.50;1.00;;;;;;5025693;28;19937;-68
2022/08/14 12:35:22;;;;;;;;;;;32.40;1.00;;;;;;5026266;28;20485;-68
2022/08/14 12:37:49;;;;;;;;;;;32.50;1.00;;;;;;5025097;28;19929;-69
2022/08/14 12:40:23;;;;;;;;;;;32.40;1.00;;;;;;5027771;28;19932;-69
2022/08/14 12:42:54;;;;;;;;;;;32.70;1.00;;;;;;5029961;28;20014;-69
2022/08/14 12:45:29;;;;;;;;;;;32.80;1.00;;;;;;5027542;28;19937;-69
2022/08/14 12:47:59;;;;;;;;;;;32.70;1.00;;;;;;5023167;28;19925;-69
2022/08/14 12:50:34;;;;;;;;;;;32.80;1.00;;;;;;5028923;28;19925;-66
2022/08/14 12:53:00;;;;;;;;;;;32.60;1.00;;;;;;5022957;28;19925;-68
2022/08/14 12:55:33;;;;;;;;;;;32.50;1.00;;;;;;5023043;28;19931;-67
2022/08/14 12:58:02;;;;;;;;;;;32.80;1.00;;;;;;5020998;28;19934;-67
2022/08/14 13:00:29;;;;;;;;;;;33.00;1.00;;;;;;5024409;28;19947;-67
2022/08/14 13:02:56;;;;;;;;;;;33.10;1.00;;;;;;5027062;28;19955;-67
2022/08/14 13:05:24;;;;;;;;;;;33.10;1.00;;;;;;5029070;28;19971;-68
2022/08/14 13:07:52;;;;;;;;;;;33.20;1.00;;;;;;5023683;28;19940;-67
2022/08/14 13:10:19;;;;;;;;;;;33.20;1.00;;;;;;5027917;28;19977;-68
2022/08/14 13:12:49;;;;;;;;;;;33.30;1.00;;;;;;5028582;28;19933;-67
2022/08/14 13:15:16;;;;;;;;;;;33.20;1.00;;;;;;5023640;28;19924;-67
2022/08/14 13:17:45;;;;;;;;;;;33.20;1.00;;;;;;5028336;28;19995;-67
2022/08/14 13:20:13;;;;;;;;;;;33.40;1.00;;;;;;5020738;28;19933;-67
2022/08/14 13:22:43;;;;;;;;;;;33.40;1.00;;;;;;5023941;28;20008;-67
2022/08/14 13:25:11;;;;;;;;;;;33.40;1.00;;;;;;5028241;28;19932;-67
2022/08/14 13:27:38;;;;;;;;;;;33.50;1.00;;;;;;5026940;28;19933;-67
2022/08/14 13:30:07;;;;;;;;;;;33.40;1.00;;;;;;5014258;28;19925;-67
2022/08/14 13:32:35;;;;;;;;;;;33.30;1.00;;;;;;5018220;28;20039;-68
2022/08/14 13:35:02;;;;;;;;;;;33.60;1.00;;;;;;5018700;28;19925;-67
2022/08/14 13:37:30;;;;;;;;;;;33.60;1.00;;;;;;5026867;28;20303;-67
2022/08/14 13:39:57;;;;;;;;;;;33.60;1.00;;;;;;5023945;28;19979;-67
2022/08/14 13:42:26;;;;;;;;;;;33.60;1.00;;;;;;5022618;28;20012;-68
2022/08/14 13:44:54;;;;;;;;;;;33.70;1.00;;;;;;5020327;28;19925;-67
2022/08/14 13:47:23;;;;;;;;;;;33.90;1.00;;;;;;5027023;28;19925;-67
2022/08/14 13:49:49;;;;;;;;;;;33.90;1.00;;;;;;5028739;28;19929;-67
2022/08/14 13:52:18;;;;;;;;;;;33.80;1.00;;;;;;5024914;28;20025;-67
2022/08/14 13:54:45;;;;;;;;;;;34.10;1.00;;;;;;5021237;28;20013;-67
2022/08/14 13:57:13;;;;;;;;;;;34.20;1.00;;;;;;5019684;28;19932;-67
2022/08/14 13:59:43;;;;;;;;;;;34.30;1.00;;;;;;5018277;28;19961;-67
2022/08/14 14:02:09;;;;;;;;;;;34.00;1.00;;;;;;5016416;28;20375;-67
2022/08/14 14:04:40;;;;;;;;;;;33.90;1.00;;;;;;5015737;28;20574;-67
2022/08/14 14:07:10;;;;;;;;;;;34.20;1.00;;;;;;5021563;28;19936;-68
2022/08/14 14:09:38;;;;;;;;;;;34.10;1.00;;;;;;5017404;28;19925;-67
2022/08/14 14:12:07;;;;;;;;;;;34.10;1.00;;;;;;5009833;28;20299;-68
2022/08/14 14:14:34;;;;;;;;;;;34.10;1.00;;;;;;5020177;28;19936;-68
2022/08/14 14:17:01;;;;;;;;;;;33.90;1.00;;;;;;5020820;28;20491;-67
2022/08/14 14:19:29;;;;;;;;;;;33.80;1.00;;;;;;5026290;28;20362;-68
2022/08/14 14:21:57;;;;;;;;;;;33.70;1.00;;;;;;5024865;28;22367;-69
2022/08/14 14:24:24;;;;;;;;;;;33.90;1.00;;;;;;5023189;28;19925;-69
2022/08/14 14:26:51;;;;;;;;;;;34.00;1.00;;;;;;5030201;28;20003;-68
2022/08/14 14:29:18;;;;;;;;;;;34.10;1.00;;;;;;5026241;28;19932;-67
2022/08/14 14:31:47;;;;;;;;;;;34.10;1.00;;;;;;5023553;28;20008;-67
2022/08/14 14:34:16;;;;;;;;;;;34.10;1.00;;;;;;5023019;28;19929;-67
2022/08/14 14:36:43;;;;;;;;;;;33.90;1.00;;;;;;5020807;28;20036;-67
2022/08/14 14:39:13;;;;;;;;;;;33.80;1.00;;;;;;5028429;28;19968;-68
2022/08/14 14:41:40;;;;;;;;;;;33.70;1.00;;;;;;5022092;28;19933;-68
2022/08/14 14:44:10;;;;;;;;;;;33.80;1.00;;;;;;5023485;28;19925;-68